createdAt,value
2019-05-07T00:00:48.904Z,15.2
2019-05-07T00:01:54.221Z,15.2
2019-05-07T00:02:56.733Z,15.2
2019-05-07T00:03:58.990Z,15.2
2019-05-07T00:05:03.272Z,15.2
2019-05-07T00:06:04.929Z,15.2
2019-05-07T00:07:09.696Z,15.2
2019-05-07T00:08:12.166Z,15.2
2019-05-07T00:09:13.579Z,15.2
2019-05-07T00:10:17.338Z,15.2
2019-05-07T00:11:21.738Z,15.2
2019-05-07T00:12:23.610Z,15.2
2019-05-07T00:13:24.862Z,15.2
2019-05-07T00:14:26.119Z,15.2
2019-05-07T00:15:27.389Z,15.2
2019-05-07T00:16:28.635Z,15.2
2019-05-07T00:17:32.093Z,15.2
2019-05-07T00:18:33.598Z,15.2
2019-05-07T00:19:37.552Z,15.2
2019-05-07T00:20:38.944Z,15.2
2019-05-07T00:21:42.006Z,15.2
2019-05-07T00:22:43.611Z,15.2
2019-05-07T00:23:44.863Z,15.1
2019-05-07T00:24:46.415Z,15.1
2019-05-07T00:25:47.681Z,15.2
2019-05-07T00:26:48.918Z,15.1
2019-05-07T00:27:52.102Z,15.1
2019-05-07T00:28:53.540Z,15.2
2019-05-07T00:29:54.764Z,15.1
2019-05-07T00:30:56.013Z,15.2
2019-05-07T00:31:57.266Z,15.2
2019-05-07T00:33:02.678Z,15.1
2019-05-07T00:34:05.796Z,15.1
2019-05-07T00:35:07.037Z,15.1
2019-05-07T00:36:08.326Z,15.1
2019-05-07T00:37:09.563Z,15.1
2019-05-07T00:38:12.711Z,15.1
2019-05-07T00:39:14.211Z,15.1
2019-05-07T00:40:15.463Z,15.1
2019-05-07T00:41:16.703Z,15.1
2019-05-07T00:42:18.065Z,15.1
2019-05-07T00:43:19.344Z,15.1
2019-05-07T00:44:22.061Z,15.1
2019-05-07T00:45:24.777Z,15.1
2019-05-07T00:46:26.055Z,15.1
2019-05-07T00:47:27.329Z,15.1
2019-05-07T00:48:28.619Z,15.1
2019-05-07T00:49:29.875Z,15.1
2019-05-07T00:50:32.606Z,15.1
2019-05-07T00:51:34.342Z,15.1
2019-05-07T00:52:35.573Z,15.1
2019-05-07T00:53:36.879Z,15.1
2019-05-07T00:54:38.127Z,15.1
2019-05-07T00:55:39.359Z,15.1
2019-05-07T00:56:43.059Z,15.1
2019-05-07T00:57:45.965Z,15.1
2019-05-07T00:58:47.259Z,15.1
2019-05-07T00:59:48.503Z,15.1
2019-05-07T01:00:49.733Z,15
2019-05-07T01:01:52.773Z,15.1
2019-05-07T01:02:54.207Z,15.1
2019-05-07T01:03:58.197Z,15.1
2019-05-07T01:04:59.435Z,15.1
2019-05-07T01:06:02.042Z,15.1
2019-05-07T01:07:03.446Z,15.1
2019-05-07T01:08:04.717Z,15.1
2019-05-07T01:09:07.023Z,15
2019-05-07T01:10:08.273Z,15
2019-05-07T01:11:09.513Z,15
2019-05-07T01:12:12.500Z,15
2019-05-07T01:13:15.886Z,15
2019-05-07T01:14:17.169Z,15
2019-05-07T01:15:28.654Z,15
2019-05-07T01:16:35.323Z,15
2019-05-07T01:17:36.627Z,15
2019-05-07T01:18:37.879Z,15
2019-05-07T01:19:39.150Z,15
2019-05-07T01:20:42.244Z,15
2019-05-07T01:21:46.088Z,15
2019-05-07T01:22:47.325Z,15
2019-05-07T01:23:52.275Z,15
2019-05-07T01:24:55.911Z,15
2019-05-07T01:25:57.271Z,15
2019-05-07T01:26:58.509Z,15
2019-05-07T01:27:59.751Z,15
2019-05-07T01:29:03.501Z,15
2019-05-07T01:30:05.074Z,15
2019-05-07T01:31:06.393Z,14.9
2019-05-07T01:32:07.643Z,14.9
2019-05-07T01:33:08.881Z,14.9
2019-05-07T01:34:11.956Z,14.9
2019-05-07T01:35:13.515Z,14.9
2019-05-07T01:36:14.744Z,14.9
2019-05-07T01:37:15.993Z,15
2019-05-07T01:38:17.231Z,14.9
2019-05-07T01:39:18.491Z,14.9
2019-05-07T01:40:19.797Z,14.9
2019-05-07T01:41:23.419Z,14.9
2019-05-07T01:42:24.646Z,14.9
2019-05-07T01:43:25.899Z,14.9
2019-05-07T01:44:27.139Z,14.9
2019-05-07T01:45:41.756Z,14.9
2019-05-07T01:46:50.348Z,14.9
2019-05-07T01:47:55.147Z,14.9
2019-05-07T01:48:57.512Z,14.9
2019-05-07T01:49:58.914Z,14.9
2019-05-07T01:51:00.181Z,14.9
2019-05-07T01:52:04.046Z,14.9
2019-05-07T01:53:05.626Z,14.9
2019-05-07T01:54:06.875Z,14.9
2019-05-07T01:55:08.118Z,14.9
2019-05-07T01:56:09.391Z,14.9
2019-05-07T01:57:13.083Z,14.9
2019-05-07T01:58:14.336Z,14.9
2019-05-07T01:59:15.581Z,14.9
2019-05-07T02:00:16.828Z,14.9
2019-05-07T02:01:18.104Z,14.9
2019-05-07T02:02:22.841Z,14.9
2019-05-07T02:03:24.658Z,14.9
2019-05-07T02:04:27.809Z,14.9
2019-05-07T02:05:29.052Z,14.9
2019-05-07T02:06:30.308Z,14.9
2019-05-07T02:07:33.574Z,14.9
2019-05-07T02:08:36.246Z,14.9
2019-05-07T02:09:37.470Z,14.9
2019-05-07T02:10:38.932Z,14.8
2019-05-07T02:11:42.117Z,14.8
2019-05-07T02:12:43.525Z,14.8
2019-05-07T02:13:45.005Z,14.8
2019-05-07T02:14:46.238Z,14.8
2019-05-07T02:15:58.331Z,14.8
2019-05-07T02:17:04.959Z,14.8
2019-05-07T02:18:06.216Z,14.8
2019-05-07T02:19:07.570Z,14.8
2019-05-07T02:20:08.814Z,14.8
2019-05-07T02:21:10.046Z,14.8
2019-05-07T02:22:13.602Z,14.8
2019-05-07T02:23:14.837Z,14.8
2019-05-07T02:24:16.102Z,14.8
2019-05-07T02:25:17.328Z,14.8
2019-05-07T02:26:18.592Z,14.8
2019-05-07T02:27:21.904Z,14.8
2019-05-07T02:28:23.380Z,14.8
2019-05-07T02:29:24.616Z,14.8
2019-05-07T02:30:25.855Z,14.8
2019-05-07T02:31:27.083Z,14.8
2019-05-07T02:32:28.374Z,14.8
2019-05-07T02:33:29.607Z,14.8
2019-05-07T02:34:33.872Z,14.8
2019-05-07T02:35:35.769Z,14.7
2019-05-07T02:36:37.060Z,14.8
2019-05-07T02:37:48.118Z,14.7
2019-05-07T02:38:56.997Z,14.7
2019-05-07T02:39:58.245Z,14.7
2019-05-07T02:40:59.495Z,14.7
2019-05-07T02:42:03.805Z,14.6
2019-05-07T02:43:05.182Z,14.7
2019-05-07T02:44:06.447Z,14.7
2019-05-07T02:45:07.730Z,14.7
2019-05-07T02:46:22.173Z,14.7
2019-05-07T02:47:33.279Z,14.7
2019-05-07T02:48:34.772Z,14.7
2019-05-07T02:49:36.033Z,14.7
2019-05-07T02:50:37.288Z,14.7
2019-05-07T02:51:38.565Z,14.7
2019-05-07T02:52:39.820Z,14.7
2019-05-07T02:53:44.450Z,14.7
2019-05-07T02:54:45.691Z,14.7
2019-05-07T02:55:46.931Z,14.7
2019-05-07T02:56:48.169Z,14.7
2019-05-07T02:57:49.445Z,14.7
2019-05-07T02:58:52.767Z,14.7
2019-05-07T02:59:54.616Z,14.7
2019-05-07T03:00:56.023Z,14.6
2019-05-07T03:01:57.264Z,14.7
2019-05-07T03:02:58.508Z,14.7
2019-05-07T03:03:59.774Z,14.7
2019-05-07T03:05:05.096Z,14.7
2019-05-07T03:06:07.014Z,14.7
2019-05-07T03:07:08.267Z,14.6
2019-05-07T03:08:09.503Z,14.7
2019-05-07T03:09:14.576Z,14.6
2019-05-07T03:10:16.062Z,14.6
2019-05-07T03:11:17.328Z,14.6
2019-05-07T03:12:18.571Z,14.6
2019-05-07T03:13:23.191Z,14.6
2019-05-07T03:14:24.910Z,14.6
2019-05-07T03:15:26.164Z,14.6
2019-05-07T03:16:39.410Z,14.6
2019-05-07T03:17:48.138Z,14.6
2019-05-07T03:18:49.394Z,14.6
2019-05-07T03:19:54.170Z,14.6
2019-05-07T03:20:55.456Z,14.6
2019-05-07T03:21:56.721Z,14.6
2019-05-07T03:22:57.962Z,14.6
2019-05-07T03:23:59.218Z,14.6
2019-05-07T03:25:04.092Z,14.6
2019-05-07T03:26:05.338Z,14.6
2019-05-07T03:27:06.600Z,14.6
2019-05-07T03:28:07.850Z,14.6
2019-05-07T03:29:09.113Z,14.6
2019-05-07T03:30:16.589Z,14.6
2019-05-07T03:31:18.453Z,14.6
2019-05-07T03:32:19.762Z,14.6
2019-05-07T03:33:28.378Z,14.6
2019-05-07T03:34:29.670Z,14.6
2019-05-07T03:35:36.268Z,14.5
2019-05-07T03:36:39.142Z,14.6
2019-05-07T03:37:47.143Z,14.6
2019-05-07T03:38:48.439Z,14.5
2019-05-07T03:39:49.717Z,14.5
2019-05-07T03:40:53.157Z,14.5
2019-05-07T03:41:54.578Z,14.5
2019-05-07T03:42:55.832Z,14.5
2019-05-07T03:43:57.070Z,14.5
2019-05-07T03:44:58.314Z,14.5
2019-05-07T03:45:59.628Z,14.5
2019-05-07T03:47:06.339Z,14.5
2019-05-07T03:48:07.838Z,14.5
2019-05-07T03:49:09.109Z,14.5
2019-05-07T03:50:14.154Z,14.5
2019-05-07T03:51:15.922Z,14.5
2019-05-07T03:52:17.189Z,14.5
2019-05-07T03:53:18.422Z,14.5
2019-05-07T03:54:20.056Z,14.5
2019-05-07T03:55:24.528Z,14.5
2019-05-07T03:56:25.829Z,14.5
2019-05-07T03:57:27.435Z,14.5
2019-05-07T03:58:28.711Z,14.5
2019-05-07T03:59:29.959Z,14.5
2019-05-07T04:00:34.946Z,14.5
2019-05-07T04:01:36.242Z,14.5
2019-05-07T04:02:37.530Z,14.4
2019-05-07T04:03:38.771Z,14.5
2019-05-07T04:04:43.011Z,14.5
2019-05-07T04:05:44.508Z,14.5
2019-05-07T04:06:45.789Z,14.5
2019-05-07T04:07:47.218Z,14.5
2019-05-07T04:08:48.464Z,14.5
2019-05-07T04:09:49.720Z,14.5
2019-05-07T04:10:54.276Z,14.5
2019-05-07T04:11:55.646Z,14.5
2019-05-07T04:12:56.889Z,14.5
2019-05-07T04:13:58.492Z,14.5
2019-05-07T04:15:03.058Z,14.5
2019-05-07T04:16:04.694Z,14.5
2019-05-07T04:17:16.833Z,14.5
2019-05-07T04:18:26.563Z,14.5
2019-05-07T04:19:27.832Z,14.5
2019-05-07T04:20:29.087Z,14.5
2019-05-07T04:21:30.322Z,14.5
2019-05-07T04:22:35.095Z,14.5
2019-05-07T04:23:36.331Z,14.5
2019-05-07T04:24:37.589Z,14.5
2019-05-07T04:25:38.825Z,14.5
2019-05-07T04:26:42.754Z,14.5
2019-05-07T04:27:46.823Z,14.5
2019-05-07T04:28:48.432Z,14.4
2019-05-07T04:29:49.669Z,14.4
2019-05-07T04:30:53.856Z,14.5
2019-05-07T04:31:55.097Z,14.5
2019-05-07T04:32:56.441Z,14.4
2019-05-07T04:33:57.692Z,14.5
2019-05-07T04:34:58.948Z,14.4
2019-05-07T04:36:02.801Z,14.4
2019-05-07T04:37:04.215Z,14.5
2019-05-07T04:38:06.809Z,14.5
2019-05-07T04:39:08.384Z,14.5
2019-05-07T04:40:09.647Z,14.5
2019-05-07T04:41:13.558Z,14.5
2019-05-07T04:42:15.155Z,14.4
2019-05-07T04:43:16.692Z,14.4
2019-05-07T04:44:23.244Z,14.4
2019-05-07T04:45:24.716Z,14.5
2019-05-07T04:46:25.957Z,14.4
2019-05-07T04:47:37.899Z,14.5
2019-05-07T04:48:47.657Z,14.4
2019-05-07T04:49:48.914Z,14.5
2019-05-07T04:50:50.163Z,14.5
2019-05-07T04:51:54.965Z,14.5
2019-05-07T04:52:56.233Z,14.5
2019-05-07T04:53:58.701Z,14.5
2019-05-07T04:54:59.952Z,14.4
2019-05-07T04:56:04.593Z,14.5
2019-05-07T04:57:05.855Z,14.5
2019-05-07T04:58:08.947Z,14.5
2019-05-07T04:59:12.946Z,14.4
2019-05-07T05:00:14.466Z,14.4
2019-05-07T05:01:16.319Z,14.4
2019-05-07T05:02:17.624Z,14.5
2019-05-07T05:03:18.945Z,14.5
2019-05-07T05:04:26.532Z,14.5
2019-05-07T05:05:35.461Z,14.5
2019-05-07T05:06:36.727Z,14.5
2019-05-07T05:07:37.957Z,14.5
2019-05-07T05:08:39.233Z,14.5
2019-05-07T05:09:42.577Z,14.5
2019-05-07T05:10:44.306Z,14.5
2019-05-07T05:11:47.789Z,14.5
2019-05-07T05:12:53.577Z,14.5
2019-05-07T05:13:55.105Z,14.5
2019-05-07T05:14:56.386Z,14.5
2019-05-07T05:15:57.659Z,14.5
2019-05-07T05:16:58.906Z,14.5
2019-05-07T05:18:02.319Z,14.5
2019-05-07T05:19:03.929Z,14.5
2019-05-07T05:20:05.521Z,14.5
2019-05-07T05:21:06.766Z,14.5
2019-05-07T05:22:12.604Z,14.5
2019-05-07T05:23:14.078Z,14.5
2019-05-07T05:24:15.324Z,14.5
2019-05-07T05:25:16.633Z,14.5
2019-05-07T05:26:18.101Z,14.5
2019-05-07T05:27:22.566Z,14.5
2019-05-07T05:28:23.860Z,14.5
2019-05-07T05:29:25.141Z,14.5
2019-05-07T05:30:26.434Z,14.5
2019-05-07T05:31:27.681Z,14.6
2019-05-07T05:32:28.940Z,14.5
2019-05-07T05:33:32.145Z,14.5
2019-05-07T05:34:33.737Z,14.6
2019-05-07T05:35:35.015Z,14.6
2019-05-07T05:36:36.355Z,14.6
2019-05-07T05:37:37.654Z,14.6
2019-05-07T05:38:42.145Z,14.6
2019-05-07T05:39:43.554Z,14.6
2019-05-07T05:40:44.847Z,14.6
2019-05-07T05:41:46.122Z,14.6
2019-05-07T05:42:47.384Z,14.6
2019-05-07T05:43:48.646Z,14.6
2019-05-07T05:44:49.920Z,14.6
2019-05-07T05:45:53.184Z,14.6
2019-05-07T05:46:54.438Z,14.6
2019-05-07T05:48:04.511Z,14.6
2019-05-07T05:49:08.946Z,14.7
2019-05-07T05:50:13.318Z,14.7
2019-05-07T05:51:15.369Z,14.7
2019-05-07T05:52:16.616Z,14.8
2019-05-07T05:53:17.902Z,15
2019-05-07T05:54:22.289Z,15.1
2019-05-07T05:55:23.628Z,15.2
2019-05-07T05:56:24.920Z,15.3
2019-05-07T05:57:26.203Z,15.3
2019-05-07T05:58:33.308Z,15.4
2019-05-07T05:59:47.753Z,15.4
2019-05-07T06:00:55.093Z,15.5
2019-05-07T06:01:56.395Z,15.6
2019-05-07T06:02:57.668Z,15.6
2019-05-07T06:03:59.170Z,15.6
2019-05-07T06:05:02.145Z,15.7
2019-05-07T06:06:03.562Z,15.7
2019-05-07T06:07:11.354Z,15.8
2019-05-07T06:08:17.524Z,15.9
2019-05-07T06:09:18.944Z,15.9
2019-05-07T06:10:22.536Z,15.9
2019-05-07T06:11:23.876Z,16
2019-05-07T06:12:25.154Z,16.1
2019-05-07T06:13:26.430Z,16.1
2019-05-07T06:14:27.685Z,16.2
2019-05-07T06:15:28.947Z,16.2
2019-05-07T06:16:30.250Z,16.2
2019-05-07T06:17:34.709Z,16.1
2019-05-07T06:18:36.209Z,16.1
2019-05-07T06:19:37.726Z,16.2
2019-05-07T06:20:38.982Z,16.2
2019-05-07T06:21:41.858Z,16.2
2019-05-07T06:22:43.353Z,16.2
2019-05-07T06:23:47.940Z,16.2
2019-05-07T06:24:49.388Z,16.2
2019-05-07T06:25:52.791Z,16.3
2019-05-07T06:26:54.057Z,16.3
2019-05-07T06:27:55.674Z,16.3
2019-05-07T06:28:56.970Z,16.3
2019-05-07T06:29:58.225Z,16.3
2019-05-07T06:30:59.480Z,16.4
2019-05-07T06:32:02.847Z,16.4
2019-05-07T06:33:04.182Z,16.4
2019-05-07T06:34:05.776Z,16.5
2019-05-07T06:35:12.015Z,16.5
2019-05-07T06:36:13.604Z,16.5
2019-05-07T06:37:14.914Z,16.5
2019-05-07T06:38:16.297Z,16.6
2019-05-07T06:39:17.554Z,16.6
2019-05-07T06:40:19.667Z,16.6
2019-05-07T06:41:28.239Z,16.6
2019-05-07T06:42:29.684Z,16.7
2019-05-07T06:43:32.491Z,16.7
2019-05-07T06:44:34.233Z,16.7
2019-05-07T06:45:35.603Z,16.8
2019-05-07T06:46:38.704Z,16.7
2019-05-07T06:47:42.603Z,16.8
2019-05-07T06:48:46.168Z,16.8
2019-05-07T06:49:47.670Z,16.8
2019-05-07T06:50:48.959Z,16.8
2019-05-07T06:51:52.242Z,16.8
2019-05-07T06:52:56.259Z,16.8
2019-05-07T06:53:59.120Z,16.8
2019-05-07T06:55:00.380Z,16.7
2019-05-07T06:56:03.953Z,16.9
2019-05-07T06:57:05.230Z,16.9
2019-05-07T06:58:06.476Z,16.9
2019-05-07T06:59:07.920Z,16.9
2019-05-07T07:00:09.178Z,16.9
2019-05-07T07:01:12.704Z,16.9
2019-05-07T07:02:13.955Z,16.9
2019-05-07T07:03:15.551Z,17
2019-05-07T07:04:26.558Z,17
2019-05-07T07:05:33.070Z,17
2019-05-07T07:06:40.284Z,17
2019-05-07T07:07:43.408Z,17
2019-05-07T07:08:44.654Z,17.1
2019-05-07T07:09:46.555Z,17.1
2019-05-07T07:10:47.961Z,17.1
2019-05-07T07:11:49.301Z,17.1
2019-05-07T07:12:53.655Z,17.2
2019-05-07T07:13:54.922Z,17.2
2019-05-07T07:14:58.057Z,17.2
2019-05-07T07:16:03.397Z,17.3
2019-05-07T07:17:04.660Z,17.3
2019-05-07T07:18:05.956Z,17.3
2019-05-07T07:19:09.526Z,17.3
2019-05-07T07:20:13.306Z,17.3
2019-05-07T07:21:14.552Z,17.4
2019-05-07T07:22:15.791Z,17.4
2019-05-07T07:23:17.055Z,17.4
2019-05-07T07:24:18.353Z,17.4
2019-05-07T07:25:19.659Z,17.4
2019-05-07T07:26:23.429Z,17.4
2019-05-07T07:27:24.701Z,17.4
2019-05-07T07:28:27.819Z,17.4
2019-05-07T07:29:29.103Z,17.4
2019-05-07T07:30:33.191Z,17.5
2019-05-07T07:31:37.822Z,17.5
2019-05-07T07:32:39.072Z,17.5
2019-05-07T07:33:40.330Z,17.5
2019-05-07T07:34:42.610Z,17.5
2019-05-07T07:35:44.093Z,17.5
2019-05-07T07:36:45.566Z,17.5
2019-05-07T07:37:46.823Z,17.5
2019-05-07T07:38:48.139Z,17.5
2019-05-07T07:39:52.475Z,17.5
2019-05-07T07:40:55.972Z,17.5
2019-05-07T07:42:02.872Z,17.5
2019-05-07T07:43:06.924Z,17.6
2019-05-07T07:44:08.431Z,17.6
2019-05-07T07:45:09.670Z,17.6
2019-05-07T07:46:16.132Z,17.6
2019-05-07T07:47:17.670Z,17.6
2019-05-07T07:48:24.504Z,17.6
2019-05-07T07:49:28.922Z,17.6
2019-05-07T07:50:30.194Z,17.6
2019-05-07T07:51:38.595Z,17.6
2019-05-07T07:52:45.851Z,17.6
2019-05-07T07:53:47.107Z,17.6
2019-05-07T07:54:48.368Z,17.7
2019-05-07T07:55:49.612Z,17.7
2019-05-07T07:56:53.716Z,17.7
2019-05-07T07:57:57.782Z,17.7
2019-05-07T07:58:59.030Z,17.7
2019-05-07T08:00:02.756Z,17.7
2019-05-07T08:01:04.268Z,17.7
2019-05-07T08:03:24.330Z,17.8
2019-05-07T08:04:25.698Z,17.8
2019-05-07T08:05:26.970Z,17.8
2019-05-07T08:06:28.549Z,17.8
2019-05-07T08:07:29.834Z,17.8
2019-05-07T08:08:33.890Z,17.8
2019-05-07T08:09:35.173Z,17.8
2019-05-07T08:10:36.444Z,17.8
2019-05-07T08:11:37.716Z,17.8
2019-05-07T08:12:39.036Z,17.8
2019-05-07T08:13:43.806Z,17.8
2019-05-07T08:14:45.274Z,17.9
2019-05-07T08:15:46.555Z,17.9
2019-05-07T08:16:47.858Z,17.9
2019-05-07T08:17:49.150Z,17.9
2019-05-07T08:18:52.812Z,17.9
2019-05-07T08:19:54.100Z,17.9
2019-05-07T08:20:55.366Z,17.9
2019-05-07T08:21:58.398Z,17.9
2019-05-07T08:23:04.780Z,17.9
2019-05-07T08:24:09.156Z,17.9
2019-05-07T08:25:12.814Z,17.9
2019-05-07T08:26:14.125Z,17.9
2019-05-07T08:27:15.556Z,17.9
2019-05-07T08:28:22.782Z,17.9
2019-05-07T08:29:24.616Z,17.9
2019-05-07T08:30:26.151Z,17.9
2019-05-07T08:31:27.412Z,17.9
2019-05-07T08:32:28.679Z,17.9
2019-05-07T08:33:31.991Z,17.9
2019-05-07T08:34:33.775Z,17.9
2019-05-07T08:35:35.031Z,17.9
2019-05-07T08:36:36.330Z,17.9
2019-05-07T08:37:37.615Z,17.9
2019-05-07T08:38:39.949Z,17.9
2019-05-07T08:39:46.421Z,17.9
2019-05-07T08:40:51.975Z,17.9
2019-05-07T08:41:58.144Z,17.9
2019-05-07T08:43:00.082Z,18
2019-05-07T08:44:11.397Z,18
2019-05-07T08:45:16.329Z,18
2019-05-07T08:46:25.222Z,18
2019-05-07T08:47:26.494Z,18
2019-05-07T08:48:31.955Z,18
2019-05-07T08:49:39.478Z,18
2019-05-07T08:50:46.625Z,18
2019-05-07T08:51:48.984Z,18
2019-05-07T08:52:52.585Z,18
2019-05-07T08:53:53.830Z,18
2019-05-07T08:54:55.406Z,18
2019-05-07T08:55:56.709Z,18
2019-05-07T08:56:57.979Z,18
2019-05-07T08:57:59.269Z,18
2019-05-07T08:59:02.859Z,18
2019-05-07T09:00:06.065Z,18
2019-05-07T09:01:07.671Z,18
2019-05-07T09:02:09.217Z,18
2019-05-07T09:03:19.943Z,18
2019-05-07T09:04:25.669Z,18
2019-05-07T09:05:26.972Z,18
2019-05-07T09:06:28.281Z,18
2019-05-07T09:07:32.597Z,18
2019-05-07T09:08:36.046Z,18
2019-05-07T09:09:37.329Z,18
2019-05-07T09:10:38.651Z,18.1
2019-05-07T09:11:39.934Z,18
2019-05-07T09:12:43.328Z,18.1
2019-05-07T09:13:44.600Z,18.1
2019-05-07T09:14:45.876Z,18.1
2019-05-07T09:15:52.792Z,18.1
2019-05-07T09:16:54.331Z,18.1
2019-05-07T09:17:55.797Z,18.1
2019-05-07T09:18:59.606Z,18.1
2019-05-07T09:20:03.393Z,18.1
2019-05-07T09:21:06.270Z,18.1
2019-05-07T09:22:07.562Z,18.1
2019-05-07T09:23:08.862Z,18.1
2019-05-07T09:24:12.613Z,18.1
2019-05-07T09:25:14.336Z,18.1
2019-05-07T09:26:15.613Z,18.1
2019-05-07T09:27:16.884Z,18.1
2019-05-07T09:28:18.154Z,18.1
2019-05-07T09:29:19.432Z,18.1
2019-05-07T09:30:22.858Z,18.1
2019-05-07T09:31:25.542Z,18.1
2019-05-07T09:32:27.317Z,18.1
2019-05-07T09:33:28.594Z,18.1
2019-05-07T09:34:29.897Z,18.1
2019-05-07T09:35:34.478Z,18.1
2019-05-07T09:36:36.206Z,18.1
2019-05-07T09:37:37.480Z,18.1
2019-05-07T09:38:38.941Z,18.1
2019-05-07T09:39:42.788Z,18.1
2019-05-07T09:40:44.378Z,18.1
2019-05-07T09:41:45.684Z,18.2
2019-05-07T09:42:47.281Z,18.2
2019-05-07T09:43:51.832Z,18.2
2019-05-07T09:44:53.396Z,18.1
2019-05-07T09:45:54.774Z,18.1
2019-05-07T09:46:56.400Z,18.1
2019-05-07T09:47:58.330Z,18.1
2019-05-07T09:49:07.196Z,18.2
2019-05-07T09:50:11.966Z,18.2
2019-05-07T09:51:13.381Z,18.2
2019-05-07T09:52:14.712Z,18.2
2019-05-07T09:53:16.284Z,18.2
2019-05-07T09:54:17.645Z,18.2
2019-05-07T09:55:19.152Z,18
2019-05-07T09:56:26.608Z,18.1
2019-05-07T09:57:31.036Z,18.1
2019-05-07T09:58:38.870Z,18.1
2019-05-07T09:59:42.503Z,18.1
2019-05-07T10:00:43.998Z,18.1
2019-05-07T10:01:48.209Z,18.1
2019-05-07T10:02:49.764Z,18.1
2019-05-07T10:03:51.812Z,18.1
2019-05-07T10:04:53.553Z,18.1
2019-05-07T10:05:54.878Z,18.1
2019-05-07T10:06:59.348Z,18.1
2019-05-07T10:08:03.268Z,18.1
2019-05-07T10:09:04.544Z,18.2
2019-05-07T10:10:07.276Z,18.1
2019-05-07T10:11:12.570Z,18.1
2019-05-07T10:12:18.476Z,18.1
2019-05-07T10:13:20.060Z,18.1
2019-05-07T10:14:23.196Z,18.1
2019-05-07T10:15:27.619Z,18.1
2019-05-07T10:16:28.875Z,18.1
2019-05-07T10:17:30.158Z,18.1
2019-05-07T10:18:33.472Z,18.1
2019-05-07T10:19:34.771Z,18.1
2019-05-07T10:20:36.336Z,18.2
2019-05-07T10:21:37.629Z,18.2
2019-05-07T10:22:39.106Z,18.2
2019-05-07T10:23:43.512Z,18.1
2019-05-07T10:24:44.931Z,18.2
2019-05-07T10:25:48.399Z,18.2
2019-05-07T10:26:50.195Z,18.2
2019-05-07T10:27:53.747Z,18.2
2019-05-07T10:28:55.367Z,18.2
2019-05-07T10:30:02.629Z,18.2
2019-05-07T10:31:05.708Z,18.2
2019-05-07T10:32:12.780Z,18.2
2019-05-07T10:33:14.320Z,18.2
2019-05-07T10:34:16.079Z,18.3
2019-05-07T10:35:17.393Z,18.3
2019-05-07T10:36:19.229Z,18.3
2019-05-07T10:37:20.719Z,18.3
2019-05-07T10:38:22.008Z,18.3
2019-05-07T10:39:23.571Z,18.3
2019-05-07T10:40:25.199Z,18.3
2019-05-07T10:41:27.763Z,18.3
2019-05-07T10:42:32.268Z,18.4
2019-05-07T10:43:36.599Z,18.4
2019-05-07T10:44:37.896Z,18.4
2019-05-07T10:45:42.125Z,18.4
2019-05-07T10:46:45.021Z,18.4
2019-05-07T10:47:48.639Z,18.4
2019-05-07T10:48:50.140Z,18.4
2019-05-07T10:49:59.141Z,18.4
2019-05-07T10:51:02.187Z,18.5
2019-05-07T10:52:03.519Z,18.5
2019-05-07T10:53:04.788Z,18.5
2019-05-07T10:54:06.056Z,18.4
2019-05-07T10:55:09.018Z,18.4
2019-05-07T10:56:12.616Z,18.3
2019-05-07T10:57:14.305Z,18.4
2019-05-07T10:58:15.825Z,18.5
2019-05-07T10:59:19.751Z,18.5
2019-05-07T11:00:23.239Z,18.5
2019-05-07T11:01:27.329Z,18.5
2019-05-07T11:02:28.606Z,18.5
2019-05-07T11:03:32.297Z,18.5
2019-05-07T11:04:42.031Z,18.5
2019-05-07T11:05:46.821Z,18.5
2019-05-07T11:06:48.215Z,18.5
2019-05-07T11:07:49.494Z,18.5
2019-05-07T11:08:51.869Z,18.5
2019-05-07T11:09:53.279Z,18.5
2019-05-07T11:10:55.799Z,18.5
2019-05-07T11:11:58.439Z,18.5
2019-05-07T11:12:59.776Z,18.5
2019-05-07T11:14:03.129Z,18.5
2019-05-07T11:15:04.418Z,18.5
2019-05-07T11:16:08.713Z,18.5
2019-05-07T11:17:12.467Z,18.5
2019-05-07T11:18:13.761Z,18.5
2019-05-07T11:19:15.033Z,18.5
2019-05-07T11:20:19.503Z,18.5
2019-05-07T11:21:23.464Z,18.6
2019-05-07T11:22:30.098Z,18.6
2019-05-07T11:23:33.555Z,18.6
2019-05-07T11:24:34.845Z,18.6
2019-05-07T11:25:36.188Z,18.6
2019-05-07T11:26:37.508Z,18.6
2019-05-07T11:27:38.773Z,18.6
2019-05-07T11:28:44.921Z,18.5
2019-05-07T11:29:46.317Z,18.6
2019-05-07T11:30:49.854Z,18.7
2019-05-07T11:31:52.483Z,18.7
2019-05-07T11:32:54.134Z,18.7
2019-05-07T11:33:55.376Z,18.7
2019-05-07T11:34:56.889Z,18.7
2019-05-07T11:35:58.188Z,18.7
2019-05-07T11:36:59.515Z,18.7
2019-05-07T11:38:16.864Z,18.7
2019-05-07T11:39:22.998Z,18.7
2019-05-07T11:40:24.570Z,18.7
2019-05-07T11:41:34.309Z,18.8
2019-05-07T11:42:35.603Z,18.8
2019-05-07T11:43:36.909Z,18.8
2019-05-07T11:44:38.371Z,18.8
2019-05-07T11:45:39.630Z,18.8
2019-05-07T11:46:44.389Z,18.8
2019-05-07T11:47:46.372Z,18.8
2019-05-07T11:48:47.645Z,18.8
2019-05-07T11:49:52.307Z,18.8
2019-05-07T11:51:03.205Z,18.8
2019-05-07T11:52:08.303Z,18.8
2019-05-07T11:53:09.857Z,18.8
2019-05-07T11:54:12.593Z,18.8
2019-05-07T11:55:16.503Z,18.8
2019-05-07T11:56:25.380Z,18.9
2019-05-07T11:57:26.653Z,18.9
2019-05-07T11:58:27.975Z,18.9
2019-05-07T11:59:29.241Z,18.9
2019-05-07T12:00:33.278Z,18.9
2019-05-07T12:01:43.301Z,18.9
2019-05-07T12:02:48.986Z,18.9
2019-05-07T12:03:52.624Z,18.9
2019-05-07T12:04:53.960Z,18.9
2019-05-07T12:05:55.220Z,19
2019-05-07T12:06:56.502Z,19
2019-05-07T12:07:57.978Z,19
2019-05-07T12:08:59.466Z,19
2019-05-07T12:10:04.309Z,19
2019-05-07T12:11:07.415Z,19
2019-05-07T12:12:08.709Z,19
2019-05-07T12:13:12.250Z,19
2019-05-07T12:14:27.906Z,19
2019-05-07T12:15:36.202Z,19
2019-05-07T12:16:37.484Z,18.9
2019-05-07T12:17:38.744Z,19
2019-05-07T12:18:40.229Z,19
2019-05-07T12:19:43.986Z,19.1
2019-05-07T12:20:45.310Z,19.1
2019-05-07T12:21:47.840Z,19.1
2019-05-07T12:22:49.113Z,19.1
2019-05-07T12:23:52.692Z,19.1
2019-05-07T12:24:54.240Z,19.1
2019-05-07T12:25:55.670Z,19.1
2019-05-07T12:26:56.952Z,19.1
2019-05-07T12:27:58.269Z,19.1
2019-05-07T12:29:00.168Z,19.1
2019-05-07T12:30:01.786Z,19.1
2019-05-07T12:31:12.123Z,19.1
2019-05-07T12:32:13.553Z,19.1
2019-05-07T12:33:14.849Z,19.1
2019-05-07T12:34:16.122Z,19.1
2019-05-07T12:35:17.438Z,19.1
2019-05-07T12:36:18.762Z,19.1
2019-05-07T12:37:20.016Z,19.1
2019-05-07T12:38:23.240Z,19.1
2019-05-07T12:39:24.774Z,19.1
2019-05-07T12:40:28.248Z,19.1
2019-05-07T12:41:33.979Z,19.1
2019-05-07T12:42:37.044Z,19.2
2019-05-07T12:43:38.769Z,19.2
2019-05-07T12:44:42.458Z,19.2
2019-05-07T12:45:43.904Z,19.2
2019-05-07T12:46:52.305Z,19.2
2019-05-07T12:47:53.754Z,19.2
2019-05-07T12:48:55.047Z,19.2
2019-05-07T12:49:59.388Z,19.2
2019-05-07T12:51:00.748Z,19.2
2019-05-07T12:52:04.199Z,19.2
2019-05-07T12:53:05.664Z,19.2
2019-05-07T12:54:07.183Z,19.2
2019-05-07T12:55:08.818Z,19.2
2019-05-07T12:56:10.152Z,19.2
2019-05-07T12:57:11.847Z,19.2
2019-05-07T12:58:13.689Z,19.2
2019-05-07T12:59:15.210Z,19.2
2019-05-07T13:00:16.480Z,19.2
2019-05-07T13:01:17.788Z,19.2
2019-05-07T13:02:34.685Z,19.2
2019-05-07T13:03:42.887Z,19.3
2019-05-07T13:04:58.310Z,19.3
2019-05-07T13:06:03.551Z,19.3
2019-05-07T13:07:05.981Z,19.3
2019-05-07T13:08:12.206Z,19.3
2019-05-07T13:09:13.629Z,19.3
2019-05-07T13:10:14.938Z,19.3
2019-05-07T13:11:16.278Z,19.3
2019-05-07T13:12:17.973Z,19.3
2019-05-07T13:13:19.922Z,19.3
2019-05-07T13:14:21.781Z,19.3
2019-05-07T13:15:27.494Z,19.3
2019-05-07T13:16:29.364Z,19.3
2019-05-07T13:17:33.711Z,19.3
2019-05-07T13:18:35.328Z,19.3
2019-05-07T13:19:39.097Z,19.3
2019-05-07T13:20:43.315Z,19.3
2019-05-07T13:21:49.240Z,19.3
2019-05-07T13:22:55.133Z,19.3
2019-05-07T13:24:05.507Z,19.3
2019-05-07T13:25:06.767Z,19.3
2019-05-07T13:26:08.616Z,19.3
2019-05-07T13:27:09.898Z,19.3
2019-05-07T13:28:11.819Z,19.3
2019-05-07T13:29:13.303Z,19.3
2019-05-07T13:30:16.134Z,19.3
2019-05-07T13:31:17.609Z,19.3
2019-05-07T13:32:18.876Z,19.3
2019-05-07T13:33:23.149Z,19.3
2019-05-07T13:34:24.496Z,19.3
2019-05-07T13:35:25.748Z,19.3
2019-05-07T13:36:28.333Z,19.3
2019-05-07T13:37:32.456Z,19.3
2019-05-07T13:38:34.227Z,19.3
2019-05-07T13:39:35.557Z,19.3
2019-05-07T13:40:37.026Z,19.3
2019-05-07T13:41:38.340Z,19.3
2019-05-07T13:42:52.214Z,19.4
2019-05-07T13:43:55.512Z,19.4
2019-05-07T13:45:03.094Z,19.4
2019-05-07T13:46:17.151Z,19.4
2019-05-07T13:47:18.783Z,19.4
2019-05-07T13:48:22.901Z,19.4
2019-05-07T13:49:25.607Z,19.4
2019-05-07T13:50:32.433Z,19.4
2019-05-07T13:51:34.015Z,19.4
2019-05-07T13:52:35.399Z,19.4
2019-05-07T13:53:40.245Z,19.4
2019-05-07T13:54:44.609Z,19.3
2019-05-07T13:55:45.915Z,19.4
2019-05-07T13:56:47.191Z,19.4
2019-05-07T13:57:48.472Z,19.4
2019-05-07T13:58:52.924Z,19.4
2019-05-07T13:59:56.271Z,19.4
2019-05-07T14:00:57.524Z,19.4
2019-05-07T14:01:59.101Z,19.4
2019-05-07T14:03:02.810Z,19.4